Time;durP1;ratioP1;P1;durP2;ratioP2;P2;SDS_P1;SDS_P2;PMS_P1;PMS_P2;Temp;Humidity;BMP_temperature;BMP_pressure;BME280_temperature;BME280_humidity;BME280_pressure;Samples;Min_cycle;Max_cycle;Signal;HPM_P1;HPM_P2
2023/07/08 07:23:00;;;;;;;7.45;5.22;;;;;;;-145.79;45.92;76580.38;5278650;28;20410;-81
2023/07/08 07:25:32;;;;;;;13.55;5.88;;;;;;;-145.79;45.67;76563.41;5275359;28;20037;-81
2023/07/08 07:28:04;;;;;;;7.50;6.07;;;;;;;-145.79;45.00;76559.19;5254616;28;20018;-80
2023/07/08 07:30:36;;;;;;;7.60;5.88;;;;;;;-145.79;45.18;76538.00;5239337;28;20022;-70
2023/07/08 07:33:07;;;;;;;6.78;6.18;;;;;;;-145.79;44.51;76535.88;5259033;28;20357;-74
2023/07/08 07:35:43;;;;;;;8.25;6.30;;;;;;;-145.79;44.40;76533.75;5267039;28;20050;-72
2023/07/08 07:38:18;;;;;;;8.50;5.28;;;;;;;-145.79;44.31;76521.03;5276436;28;20029;-73
2023/07/08 07:40:52;;;;;;;8.35;5.80;;;;;;;-145.79;43.81;76508.31;5261110;28;20464;-71
2023/07/08 07:43:23;;;;;;;7.65;5.70;;;;;;;-145.79;43.54;76495.59;5261906;28;20458;-74
2023/07/08 07:45:55;;;;;;;8.27;6.07;;;;;;;-145.79;43.24;76482.88;5247289;28;20105;-80
2023/07/08 07:48:26;;;;;;;9.88;6.05;;;;;;;-145.79;43.46;76474.41;5252699;28;20027;-76
2023/07/08 07:50:57;;;;;;;9.02;6.30;;;;;;;-145.79;43.19;76465.94;5279136;28;20028;-75
2023/07/08 07:53:29;;;;;;;6.78;6.07;;;;;;;-145.79;43.31;76453.22;5273912;28;20078;-76
2023/07/08 07:56:03;;;;;;;6.00;5.38;;;;;;;-145.79;43.26;76442.63;5255947;28;20083;-76
2023/07/08 07:58:34;;;;;;;8.10;5.77;;;;;;;-145.79;42.62;76427.78;5258602;28;20056;-76
2023/07/08 08:01:06;;;;;;;10.45;5.55;;;;;;;-145.79;42.56;76408.72;5258054;28;20472;-74
2023/07/08 08:03:37;;;;;;;7.85;6.25;;;;;;;-145.79;42.37;76396.00;5240675;28;20084;-74
2023/07/08 08:06:09;;;;;;;11.82;6.15;;;;;;;-145.79;43.08;76391.78;5237594;28;20036;-73
2023/07/08 08:08:40;;;;;;;8.15;5.57;;;;;;;-145.79;43.39;76381.16;5241228;28;20077;-82
2023/07/08 08:11:11;;;;;;;7.07;5.38;;;;;;;-145.79;42.78;76376.94;5262755;28;20021;-83
2023/07/08 08:13:43;;;;;;;6.20;5.40;;;;;;;-145.79;42.86;76362.09;5277457;28;20048;-84
2023/07/08 08:16:14;;;;;;;15.90;13.68;;;;;;;-145.79;43.02;76353.63;5261082;28;20115;-86
2023/07/08 08:18:46;;;;;;;8.02;6.07;;;;;;;-145.79;42.70;76347.25;5256699;28;20029;-87
2023/07/08 08:21:17;;;;;;;7.05;5.88;;;;;;;-145.79;42.70;76345.16;5238354;28;20546;-87
2023/07/08 08:23:49;;;;;;;8.27;6.25;;;;;;;-145.79;42.38;76330.31;5245837;28;20654;-83
2023/07/08 08:26:20;;;;;;;7.85;6.50;;;;;;;-145.79;41.83;76307.00;5279141;28;20048;-82
2023/07/08 08:28:51;;;;;;;8.75;6.10;;;;;;;-145.79;41.63;76304.88;5269577;28;20472;-83
2023/07/08 08:31:23;;;;;;;7.00;5.93;;;;;;;-145.79;41.33;76296.41;5256896;28;20021;-79
2023/07/08 08:33:54;;;;;;;7.18;6.05;;;;;;;-145.79;40.62;76287.94;5246779;28;20021;-79
2023/07/08 08:36:25;;;;;;;11.70;10.70;;;;;;;-145.79;40.19;76275.22;5236804;28;20382;-77
2023/07/08 08:38:57;;;;;;;7.03;6.00;;;;;;;-145.79;39.97;76264.63;5222504;28;20441;-77
2023/07/08 08:41:36;;;;;;;8.13;7.32;;;;;;;-145.79;39.98;76254.03;5223206;28;20424;-80
2023/07/08 08:44:15;;;;;;;8.70;6.72;;;;;;;-145.79;39.76;76232.84;5248271;28;20025;-75
2023/07/08 08:47:06;;;;;;;9.05;6.63;;;;;;;-145.79;39.87;76211.66;5263681;28;20041;-76
2023/07/08 08:49:44;;;;;;;8.52;6.40;;;;;;;-145.79;39.56;76220.13;5265394;28;20047;-77
2023/07/08 08:52:15;;;;;;;8.30;6.65;;;;;;;-145.79;39.78;76207.41;5258817;28;20025;-77
2023/07/08 08:54:46;;;;;;;9.98;6.55;;;;;;;-145.79;39.17;76194.69;5225405;28;20080;-82
2023/07/08 08:57:40;;;;;;;9.55;6.82;;;;;;;-145.79;39.47;76196.81;5222699;28;20026;-78
2023/07/08 09:00:20;;;;;;;9.45;6.90;;;;;;;-145.79;39.60;76177.75;5256472;28;20072;-79
2023/07/08 09:03:09;;;;;;;7.28;6.47;;;;;;;-145.79;39.42;76177.75;5251575;28;20037;-79
2023/07/08 09:05:45;;;;;;;9.60;7.45;;;;;;;-145.79;38.18;76194.69;5222624;28;20025;-80
2023/07/08 09:08:23;;;;;;;8.27;6.75;;;;;;;-145.79;37.55;76190.47;5232619;28;20025;-80
2023/07/08 09:11:07;;;;;;;7.80;7.00;;;;;;;-145.79;36.91;76173.50;5232253;28;20045;-81
2023/07/08 09:13:39;;;;;;;11.30;7.78;;;;;;;-145.79;36.22;76177.75;5222484;28;20096;-80
2023/07/08 09:16:47;;;;;;;7.32;6.57;;;;;;;-145.79;36.63;76160.78;5222943;28;20022;-82
2023/07/08 09:19:29;;;;;;;9.10;6.97;;;;;;;-145.79;37.04;76143.84;5223916;28;20161;-81
2023/07/08 09:22:21;;;;;;;8.07;6.88;;;;;;;-145.79;37.23;76135.38;5242334;28;20408;-81
2023/07/08 09:25:15;;;;;;;7.25;6.47;;;;;;;-145.79;37.27;76116.28;5243469;28;20089;-81
2023/07/08 09:27:47;;;;;;;9.50;7.65;;;;;;;-145.79;36.50;76084.50;5219590;28;20061;-81
2023/07/08 09:30:21;;;;;;;7.88;7.07;;;;;;;-145.79;36.22;76099.34;5243676;28;20025;-81
2023/07/08 09:32:53;;;;;;;9.05;7.55;;;;;;;-145.79;36.63;76073.91;5242864;28;20060;-83
2023/07/08 09:35:27;;;;;;;8.63;7.15;;;;;;;-145.79;36.18;76076.03;5343682;22;20448;-80
2023/07/08 09:38:07;;;;;;;8.55;7.32;;;;;;;-145.79;36.29;76078.16;5242448;28;20026;-81
2023/07/08 09:40:39;;;;;;;13.70;10.45;;;;;;;-145.79;36.61;76054.84;5242554;28;20025;-81
2023/07/08 09:43:36;;;;;;;9.25;8.32;;;;;;;-145.79;36.77;76040.00;5241568;28;20025;-83
2023/07/08 09:46:12;;;;;;;8.02;7.22;;;;;;;-145.79;36.07;76008.22;5241658;28;20057;-84
2023/07/08 09:48:43;;;;;;;7.72;6.93;;;;;;;-145.79;36.51;75987.03;5241955;28;20030;-82
2023/07/08 09:51:15;;;;;;;8.90;6.43;;;;;;;-145.79;36.39;75961.63;5242489;28;20041;-75
2023/07/08 09:53:47;;;;;;;13.27;11.80;;;;;;;-145.79;36.71;75957.38;5241847;28;20087;-82
2023/07/08 09:56:18;;;;;;;31.58;28.35;;;;;;;-145.79;36.38;75953.13;5241650;28;20034;-82
2023/07/08 09:58:50;;;;;;;9.95;8.65;;;;;;;-145.79;35.60;75927.72;5242489;28;20022;-83
2023/07/08 10:01:25;;;;;;;9.50;6.68;;;;;;;-145.79;35.41;75955.25;5241451;28;20033;-84
2023/07/08 10:04:01;;;;;;;19.38;17.70;;;;;;;-145.79;35.78;75938.31;5241723;28;20500;-83
2023/07/08 10:06:35;;;;;;;9.90;8.63;;;;;;;-145.79;34.28;75904.41;5242294;28;20033;-80
2023/07/08 10:09:18;;;;;;;8.75;6.60;;;;;;;-145.79;34.37;75910.75;5241229;28;20029;-84
2023/07/08 10:12:03;;;;;;;8.85;7.20;;;;;;;-145.79;34.83;75931.94;5241616;28;20495;-85
2023/07/08 10:14:39;;;;;;;9.63;7.40;;;;;;;-145.79;34.82;75912.88;5242371;28;20041;-83
2023/07/08 10:17:15;;;;;;;7.85;7.05;;;;;;;-145.79;34.62;75915.00;5241158;28;20056;-83
2023/07/08 10:19:47;;;;;;;7.00;6.30;;;;;;;-145.79;34.39;75902.28;5240654;28;20039;-83
2023/07/08 10:22:34;;;;;;;8.88;6.78;;;;;;;-145.79;34.70;75900.16;5242688;28;20029;-84
2023/07/08 10:25:21;;;;;;;7.68;6.88;;;;;;;-145.79;34.86;75885.34;5241259;28;20129;-84
2023/07/08 10:28:19;;;;;;;12.40;11.10;;;;;;;-145.79;34.61;75868.38;5250492;28;20029;-84
2023/07/08 10:31:05;;;;;;;10.35;7.82;;;;;;;-145.79;34.77;75868.38;5225619;28;20076;-83
2023/07/08 10:34:12;;;;;;;10.50;7.25;;;;;;;-145.79;34.59;75851.44;5221862;28;20080;-83
2023/07/08 10:36:59;;;;;;;7.63;6.72;;;;;;;-145.79;34.54;75842.97;5237832;28;20037;-82
2023/07/08 10:39:36;;;;;;;11.40;7.78;;;;;;;-145.79;34.83;75817.53;5240689;28;20075;-81
2023/07/08 10:42:25;;;;;;;41.55;37.90;;;;;;;-145.79;33.85;75817.53;5241262;28;20029;-80
2023/07/08 10:45:21;;;;;;;9.15;6.80;;;;;;;-145.79;33.94;75815.41;5240906;28;20538;-83
2023/07/08 10:48:01;;;;;;;8.27;6.78;;;;;;;-145.79;33.75;75811.19;5241573;28;20132;-83
2023/07/08 10:50:54;;;;;;;9.30;8.40;;;;;;;-145.79;33.76;75809.06;5242118;28;20060;-83
2023/07/08 10:53:25;;;;;;;7.82;6.82;;;;;;;-145.79;33.57;75804.81;5241089;28;20025;-84
2023/07/08 10:55:59;;;;;;;9.68;7.68;;;;;;;-145.79;33.70;75770.91;5240958;28;20035;-84
2023/07/08 10:58:46;;;;;;;9.13;6.97;;;;;;;-145.79;33.21;75758.19;5240234;28;20017;-83
2023/07/08 11:01:40;;;;;;;9.13;7.13;;;;;;;-145.79;32.76;75766.69;5241438;28;20104;-83
2023/07/08 11:04:17;;;;;;;8.13;7.03;;;;;;;-145.79;32.25;75739.13;5238529;28;20095;-83
2023/07/08 11:06:57;;;;;;;9.32;6.75;;;;;;;-145.79;32.90;75749.72;5241075;28;20033;-84
2023/07/08 11:09:39;;;;;;;8.98;7.40;;;;;;;-145.79;32.73;75724.31;5241193;28;20531;-79
2023/07/08 11:12:28;;;;;;;9.52;7.45;;;;;;;-145.79;32.20;75724.31;5241097;28;20346;-85
2023/07/08 11:15:11;;;;;;;7.18;6.47;;;;;;;-145.79;32.08;75724.31;5239701;28;20469;-83
2023/07/08 11:17:56;;;;;;;9.43;7.45;;;;;;;-145.79;31.70;75707.34;5241309;28;20151;-80
2023/07/08 11:20:38;;;;;;;7.05;6.32;;;;;;;-145.79;31.29;75686.16;5237242;28;20384;-84
2023/07/08 11:23:29;;;;;;;7.82;6.32;;;;;;;-145.79;31.07;75684.03;5240933;28;20112;-86
2023/07/08 11:26:15;;;;;;;11.07;7.57;;;;;;;-145.79;30.17;75650.16;5241622;28;20021;-85
2023/07/08 11:28:49;;;;;;;15.02;13.68;;;;;;;-145.79;31.10;75639.56;5240261;28;20037;-87
2023/07/08 11:31:22;;;;;;;9.93;8.15;;;;;;;-145.79;31.09;75643.78;5241367;28;20029;-84
2023/07/08 11:33:56;;;;;;;12.52;9.98;;;;;;;-145.79;31.78;75641.66;5240125;28;20144;-85
2023/07/08 11:36:30;;;;;;;11.43;6.97;;;;;;;-145.79;31.18;75639.56;5240977;28;20045;-85
2023/07/08 11:39:02;;;;;;;9.38;6.80;;;;;;;-145.79;31.35;75648.03;5241233;28;20361;-86
2023/07/08 11:41:33;;;;;;;8.93;7.68;;;;;;;-145.79;31.19;75618.38;5240259;28;20029;-88
2023/07/08 11:44:05;;;;;;;14.60;6.60;;;;;;;-145.79;30.94;75628.97;5241620;28;20414;-83
2023/07/08 11:46:54;;;;;;;9.75;6.85;;;;;;;-145.79;31.16;75620.47;5242996;28;20453;-89
2023/07/08 11:49:26;;;;;;;8.63;7.50;;;;;;;-145.79;31.36;75597.19;5243799;28;20432;-89
2023/07/08 11:51:58;;;;;;;7.75;6.97;;;;;;;-145.79;31.41;75597.19;5243563;28;20026;-89
2023/07/08 11:54:30;;;;;;;8.45;6.85;;;;;;;-145.79;30.66;75578.13;5245560;28;20428;-87
2023/07/08 11:57:17;;;;;;;12.85;7.25;;;;;;;-145.79;30.85;75567.53;5247243;28;20033;-87
2023/07/08 12:00:12;;;;;;;8.15;6.57;;;;;;;-145.79;31.20;75588.72;5244566;28;20029;-85
2023/07/08 12:02:50;;;;;;;30.83;27.88;;;;;;;-145.79;30.55;75563.28;5241730;28;20091;-86
2023/07/08 12:05:33;;;;;;;9.07;8.05;;;;;;;-145.79;31.20;75563.28;5241927;28;20060;-91
2023/07/08 12:08:17;;;;;;;11.07;7.72;;;;;;;-145.79;30.08;75556.94;5242698;28;20444;-91
2023/07/08 12:10:52;;;;;;;7.35;6.65;;;;;;;-145.79;30.46;75539.97;5244790;28;20022;-90
2023/07/08 12:13:25;;;;;;;9.73;8.75;;;;;;;-145.79;30.53;75512.44;5244101;28;20025;-85
2023/07/08 12:15:56;;;;;;;10.10;6.43;;;;;;;-145.79;30.11;75510.31;5243993;28;20029;-85
2023/07/08 12:18:36;;;;;;;9.05;7.43;;;;;;;-145.79;29.69;75518.78;5245609;28;20113;-86
2023/07/08 12:21:08;;;;;;;11.75;7.85;;;;;;;-145.79;29.46;75506.06;5243846;28;20090;-86
2023/07/08 12:23:47;;;;;;;8.63;6.88;;;;;;;-145.79;29.61;75497.59;5243880;28;20026;-84
2023/07/08 12:26:19;;;;;;;7.60;6.90;;;;;;;-145.79;29.47;75493.38;5254312;28;20022;-86
2023/07/08 12:28:51;;;;;;;8.55;7.20;;;;;;;-145.79;29.76;75474.28;5259503;28;20137;-83
2023/07/08 12:31:23;;;;;;;9.43;7.15;;;;;;;-145.79;29.24;75451.00;5246590;28;20072;-82
2023/07/08 12:33:55;;;;;;;8.00;6.93;;;;;;;-145.79;29.49;75470.06;5247493;28;21172;-86
2023/07/08 12:36:29;;;;;;;8.63;7.53;;;;;;;-145.79;29.07;75453.09;5251079;28;20065;-85
2023/07/08 12:39:01;;;;;;;8.02;6.78;;;;;;;-145.79;29.59;75442.53;5251136;28;20018;-82
2023/07/08 12:41:34;;;;;;;12.70;6.78;;;;;;;-145.79;29.25;75423.44;5246985;28;20026;-82
2023/07/08 12:44:18;;;;;;;6.80;6.10;;;;;;;-145.79;29.02;75429.81;5245195;28;20098;-80
2023/07/08 12:46:53;;;;;;;8.90;7.07;;;;;;;-145.79;29.13;75434.03;5245442;28;20024;-77
2023/07/08 12:49:27;;;;;;;7.57;6.72;;;;;;;-145.79;28.91;75421.34;5245666;28;20089;-81
2023/07/08 12:51:58;;;;;;;9.88;6.53;;;;;;;-145.79;28.86;75398.03;5245355;28;20500;-78
2023/07/08 12:54:30;;;;;;;10.35;6.43;;;;;;;-145.79;28.65;75374.72;5244654;28;20033;-79
2023/07/08 12:57:02;;;;;;;6.60;5.90;;;;;;;-145.79;28.69;75383.19;5246311;28;20179;-81
2023/07/08 12:59:33;;;;;;;8.13;6.88;;;;;;;-145.79;28.58;75364.13;5246181;28;20070;-79
2023/07/08 13:02:16;;;;;;;7.35;6.43;;;;;;;-145.79;28.51;75372.59;5244625;28;20030;-80
2023/07/08 13:04:52;;;;;;;12.85;11.50;;;;;;;-145.79;28.71;75338.72;5243546;28;20026;-80
2023/07/08 13:07:34;;;;;;;7.45;6.72;;;;;;;-145.79;28.63;75362.00;5245542;28;20040;-80
2023/07/08 13:10:08;;;;;;;8.60;6.35;;;;;;;-145.79;28.71;75347.19;5235279;28;20018;-78
2023/07/08 13:12:40;;;;;;;6.97;6.28;;;;;;;-145.79;28.51;75334.47;5239401;28;20029;-81
2023/07/08 13:15:20;;;;;;;7.05;5.47;;;;;;;-145.79;28.30;75326.00;5235186;28;20026;-76
2023/07/08 13:17:52;;;;;;;6.28;5.68;;;;;;;-145.79;27.97;75304.81;5235820;28;20504;-80
2023/07/08 13:20:24;;;;;;;8.70;5.43;;;;;;;-145.79;28.14;75311.16;5230709;28;20052;-79
2023/07/08 13:23:03;;;;;;;7.82;6.30;;;;;;;-145.79;28.29;75323.88;5229749;28;20473;-78
2023/07/08 13:25:38;;;;;;;7.95;5.47;;;;;;;-145.79;28.30;75313.28;5238614;28;20377;-76
2023/07/08 13:28:27;;;;;;;7.53;6.43;;;;;;;-145.79;28.42;75294.22;5230582;28;20022;-77
2023/07/08 13:31:01;;;;;;;8.98;6.47;;;;;;;-145.79;28.42;75275.16;5231738;28;20053;-80
2023/07/08 13:33:33;;;;;;;9.88;6.88;;;;;;;-145.79;28.49;75268.78;5229212;28;20018;-78
2023/07/08 13:36:05;;;;;;;7.70;5.63;;;;;;;-145.79;28.24;75266.69;5230524;28;20060;-78
2023/07/08 13:38:40;;;;;;;6.90;6.20;;;;;;;-145.79;28.56;75266.69;5236460;28;20357;-80
2023/07/08 13:41:20;;;;;;;10.98;7.72;;;;;;;-145.79;28.45;75260.31;5230607;28;20099;-78
2023/07/08 13:43:51;;;;;;;8.70;6.75;;;;;;;-145.79;28.61;75270.91;5241645;28;20028;-78
2023/07/08 13:46:54;;;;;;;8.65;6.88;;;;;;;-145.79;28.62;75249.72;5240655;28;20473;-79
2023/07/08 13:49:29;;;;;;;8.15;6.80;;;;;;;-145.79;28.66;75232.78;5240993;28;20029;-79
2023/07/08 13:52:08;;;;;;;8.45;6.25;;;;;;;-145.79;28.29;75245.50;5241485;28;20037;-79
2023/07/08 13:54:47;;;;;;;6.53;5.85;;;;;;;-145.79;28.32;75249.72;5241332;28;20035;-80
2023/07/08 13:57:23;;;;;;;10.25;6.60;;;;;;;-145.79;28.40;75260.31;5243473;28;20021;-79
2023/07/08 13:59:55;;;;;;;8.27;6.85;;;;;;;-145.79;28.59;75245.50;5234097;28;20113;-80
2023/07/08 14:02:30;;;;;;;7.65;6.30;;;;;;;-145.79;28.51;75228.53;5230423;28;20452;-80
2023/07/08 14:05:04;;;;;;;6.93;6.22;;;;;;;-145.79;28.64;75237.03;5230313;28;20025;-79
2023/07/08 14:07:35;;;;;;;6.90;6.15;;;;;;;-145.79;28.76;75228.53;5235428;28;20025;-79
2023/07/08 14:10:12;;;;;;;8.38;6.45;;;;;;;-145.79;28.82;75241.25;5230306;28;20392;-75
2023/07/08 14:12:43;;;;;;;8.00;6.22;;;;;;;-145.79;28.50;75220.06;5233045;28;20117;-75
2023/07/08 14:15:15;;;;;;;8.95;6.20;;;;;;;-145.79;28.45;75230.66;5231744;28;20100;-75
2023/07/08 14:17:46;;;;;;;7.97;6.10;;;;;;;-145.79;27.95;75232.78;5232161;28;20048;-76
2023/07/08 14:20:27;;;;;;;8.57;5.97;;;;;;;-145.79;28.28;75264.56;5229034;28;20037;-80
2023/07/08 14:22:58;;;;;;;6.28;5.18;;;;;;;-145.79;28.04;75253.97;5223929;28;20038;-79
2023/07/08 14:25:29;;;;;;;8.80;6.70;;;;;;;-145.79;28.07;75266.69;5235729;28;20026;-79
2023/07/08 14:28:02;;;;;;;7.25;5.35;;;;;;;-145.79;28.11;75275.16;5246766;28;20539;-79
2023/07/08 14:30:41;;;;;;;8.30;6.43;;;;;;;-145.79;28.23;75270.91;5235165;28;20022;-80
2023/07/08 14:33:13;;;;;;;9.38;6.50;;;;;;;-145.79;28.20;75281.50;5234665;28;20469;-80
2023/07/08 14:35:44;;;;;;;10.07;7.45;;;;;;;-145.79;28.43;75287.88;5229995;28;20096;-76
2023/07/08 14:38:16;;;;;;;10.43;6.13;;;;;;;-145.79;28.28;75270.91;5231794;28;20300;-77
2023/07/08 14:40:47;;;;;;;6.35;5.75;;;;;;;-145.79;28.14;75306.94;5235382;28;20440;-76
2023/07/08 14:43:24;;;;;;;7.68;6.32;;;;;;;-145.79;28.54;75309.03;5234549;28;20057;-78
2023/07/08 14:45:59;;;;;;;8.00;6.50;;;;;;;-145.79;28.59;75323.88;5233313;28;20095;-79
2023/07/08 14:48:32;;;;;;;7.65;6.07;;;;;;;-145.79;28.62;75321.75;5230184;28;20389;-79
2023/07/08 14:51:03;;;;;;;9.55;6.57;;;;;;;-145.79;28.83;75317.53;5233373;28;20022;-80
2023/07/08 14:53:35;;;;;;;7.93;5.88;;;;;;;-145.79;28.93;75321.75;5229966;28;20107;-78
2023/07/08 14:56:14;;;;;;;7.88;6.18;;;;;;;-145.79;28.92;75338.72;5232981;28;20037;-77
2023/07/08 14:58:47;;;;;;;7.00;6.30;;;;;;;-145.79;28.72;75340.81;5232472;28;20037;-78
2023/07/08 15:01:20;;;;;;;6.95;6.10;;;;;;;-145.79;28.98;75355.66;5229907;28;20022;-76
2023/07/08 15:03:51;;;;;;;7.55;6.80;;;;;;;-145.79;29.02;75357.78;5234293;28;20030;-76
2023/07/08 15:06:23;;;;;;;9.02;7.05;;;;;;;-145.79;29.40;75366.25;5232912;28;20030;-77
2023/07/08 15:08:55;;;;;;;9.90;7.90;;;;;;;-145.79;29.32;75385.31;5233171;28;20449;-77
2023/07/08 15:11:26;;;;;;;8.18;6.53;;;;;;;-145.79;29.38;75381.09;5232205;28;20159;-82
2023/07/08 15:13:59;;;;;;;8.85;6.68;;;;;;;-145.79;29.54;75385.31;5234229;28;20410;-79
2023/07/08 15:16:31;;;;;;;8.48;6.88;;;;;;;-145.79;29.73;75395.91;5231953;28;20025;-80
2023/07/08 15:19:10;;;;;;;8.00;7.10;;;;;;;-145.79;30.01;75412.84;5230548;28;20087;-79
2023/07/08 15:21:41;;;;;;;11.80;7.15;;;;;;;-145.79;30.24;75402.25;5229511;28;20338;-78
2023/07/08 15:24:14;;;;;;;8.18;7.25;;;;;;;-145.79;30.23;75414.97;5230777;28;20025;-77
2023/07/08 15:26:48;;;;;;;8.27;6.88;;;;;;;-145.79;30.75;75427.69;5225977;28;20045;-78
2023/07/08 15:29:22;;;;;;;10.07;7.72;;;;;;;-145.79;30.68;75419.22;5222026;28;20075;-79
2023/07/08 15:31:56;;;;;;;10.35;8.38;;;;;;;-145.79;30.86;75431.94;5223798;28;20029;-79
2023/07/08 15:34:28;;;;;;;10.30;7.22;;;;;;;-145.79;31.10;75440.41;5217072;28;20124;-77
2023/07/08 15:36:59;;;;;;;8.02;6.50;;;;;;;-145.79;31.10;75444.63;5217831;28;20038;-78
2023/07/08 15:39:30;;;;;;;9.77;6.90;;;;;;;-145.79;31.59;75457.34;5229954;28;20048;-79
2023/07/08 15:42:02;;;;;;;6.72;6.00;;;;;;;-145.79;31.54;75470.06;5233876;28;20538;-79
2023/07/08 15:44:33;;;;;;;6.75;6.10;;;;;;;-145.79;31.55;75476.41;5236427;28;20048;-78
2023/07/08 15:47:07;;;;;;;10.40;6.88;;;;;;;-145.79;31.62;75487.00;5237499;28;20103;-79
2023/07/08 15:49:38;;;;;;;9.13;6.10;;;;;;;-145.79;31.64;75493.38;5240038;28;20029;-75
2023/07/08 15:52:09;;;;;;;7.80;6.10;;;;;;;-145.79;32.09;75501.84;5237735;28;20417;-73
2023/07/08 15:54:41;;;;;;;10.43;5.90;;;;;;;-145.79;32.34;75516.66;5234742;28;20026;-74
2023/07/08 15:57:13;;;;;;;9.43;5.85;;;;;;;-145.79;32.45;75520.91;5238722;28;20391;-74
2023/07/08 15:59:52;;;;;;;8.10;6.00;;;;;;;-145.79;32.84;75525.16;5236517;28;20074;-74
2023/07/08 16:02:29;;;;;;;7.72;5.97;;;;;;;-145.79;33.07;75523.03;5231796;28;20436;-74
2023/07/08 16:05:01;;;;;;;10.15;7.70;;;;;;;-145.79;33.47;75535.75;5234425;28;20029;-74
2023/07/08 16:07:32;;;;;;;9.70;6.05;;;;;;;-145.79;33.26;75554.81;5233304;28;20025;-74
2023/07/08 16:10:04;;;;;;;8.27;5.30;;;;;;;-145.79;32.65;75556.94;5232124;28;20105;-73
2023/07/08 16:12:35;;;;;;;8.88;4.95;;;;;;;-145.79;32.62;75565.41;5233274;28;20104;-73
2023/07/08 16:15:15;;;;;;;6.80;5.15;;;;;;;-145.79;32.62;75576.00;5242472;28;20025;-74
2023/07/08 16:17:47;;;;;;;8.07;5.00;;;;;;;-145.79;32.87;75580.22;5242595;28;20040;-73
2023/07/08 16:20:23;;;;;;;9.00;5.43;;;;;;;-145.79;33.26;75567.53;5243922;28;20021;-73
2023/07/08 16:22:55;;;;;;;8.15;4.95;;;;;;;-145.79;33.35;75552.69;5243066;28;20086;-73
2023/07/08 16:25:30;;;;;;;6.60;6.00;;;;;;;-145.79;33.50;75544.22;5244414;28;20017;-74
2023/07/08 16:28:03;;;;;;;7.35;5.30;;;;;;;-145.79;33.53;75533.63;5243724;28;20074;-72
2023/07/08 16:30:34;;;;;;;9.40;5.20;;;;;;;-145.79;33.83;75529.38;5243493;28;20507;-73
2023/07/08 16:33:07;;;;;;;9.55;5.60;;;;;;;-145.79;33.50;75514.56;5243435;28;20033;-72
2023/07/08 16:35:39;;;;;;;6.82;5.70;;;;;;;-145.79;33.63;75529.38;5243436;28;20037;-83
2023/07/08 16:38:10;;;;;;;7.65;5.93;;;;;;;-145.79;33.71;75546.34;5241777;28;20128;-82
2023/07/08 16:40:42;;;;;;;6.88;5.10;;;;;;;-145.79;33.88;75546.34;5243238;28;20021;-81
2023/07/08 16:43:23;;;;;;;6.53;5.00;;;;;;;-145.79;33.83;75537.84;5231360;28;23724;-77
2023/07/08 16:45:54;;;;;;;10.18;5.20;;;;;;;-145.79;33.74;75525.16;5234837;28;20051;-76
2023/07/08 16:48:26;;;;;;;7.97;5.68;;;;;;;-145.79;34.13;75527.25;5235044;28;20025;-77
2023/07/08 16:50:57;;;;;;;5.72;5.20;;;;;;;-145.79;33.25;75516.66;5235588;28;20037;-77
2023/07/08 16:53:28;;;;;;;8.25;5.35;;;;;;;-145.79;33.41;75514.56;5236590;28;20064;-77
